sensor_id;sensor_type;location;lat;lon;timestamp;P1;durP1;ratioP1;P2;durP2;ratioP2
15398;SDS011;7797;51.428;6.756;2023-04-03T00:00:31;5.20;;;4.50;;
15398;SDS011;7797;51.428;6.756;2023-04-03T00:02:58;5.97;;;4.00;;
15398;SDS011;7797;51.428;6.756;2023-04-03T00:05:25;6.97;;;4.00;;
15398;SDS011;7797;51.428;6.756;2023-04-03T00:07:51;6.50;;;4.23;;
15398;SDS011;7797;51.428;6.756;2023-04-03T00:10:18;5.20;;;4.10;;
15398;SDS011;7797;51.428;6.756;2023-04-03T00:12:45;5.70;;;4.30;;
15398;SDS011;7797;51.428;6.756;2023-04-03T00:15:12;6.33;;;4.00;;
15398;SDS011;7797;51.428;6.756;2023-04-03T00:17:39;6.67;;;4.27;;
15398;SDS011;7797;51.428;6.756;2023-04-03T00:20:06;5.57;;;4.20;;
15398;SDS011;7797;51.428;6.756;2023-04-03T00:22:33;6.17;;;4.07;;
15398;SDS011;7797;51.428;6.756;2023-04-03T00:25:00;6.07;;;4.23;;
15398;SDS011;7797;51.428;6.756;2023-04-03T00:27:26;4.77;;;3.80;;
15398;SDS011;7797;51.428;6.756;2023-04-03T00:29:53;5.67;;;4.17;;
15398;SDS011;7797;51.428;6.756;2023-04-03T00:32:20;5.00;;;4.37;;
15398;SDS011;7797;51.428;6.756;2023-04-03T00:34:47;5.20;;;4.47;;
15398;SDS011;7797;51.428;6.756;2023-04-03T00:37:13;6.20;;;4.33;;
15398;SDS011;7797;51.428;6.756;2023-04-03T00:39:40;5.07;;;4.20;;
15398;SDS011;7797;51.428;6.756;2023-04-03T00:42:07;6.90;;;4.57;;
15398;SDS011;7797;51.428;6.756;2023-04-03T00:47:01;6.07;;;4.20;;
15398;SDS011;7797;51.428;6.756;2023-04-03T00:49:29;6.47;;;4.23;;
15398;SDS011;7797;51.428;6.756;2023-04-03T00:51:56;6.53;;;4.57;;
15398;SDS011;7797;51.428;6.756;2023-04-03T00:54:23;5.40;;;4.37;;
15398;SDS011;7797;51.428;6.756;2023-04-03T00:56:50;5.20;;;4.30;;
15398;SDS011;7797;51.428;6.756;2023-04-03T00:59:28;5.70;;;4.80;;
15398;SDS011;7797;51.428;6.756;2023-04-03T01:01:57;6.37;;;4.70;;
15398;SDS011;7797;51.428;6.756;2023-04-03T01:04:26;5.30;;;4.70;;
15398;SDS011;7797;51.428;6.756;2023-04-03T01:06:59;6.00;;;4.60;;
15398;SDS011;7797;51.428;6.756;2023-04-03T01:09:28;5.77;;;4.60;;
15398;SDS011;7797;51.428;6.756;2023-04-03T01:12:12;4.77;;;4.30;;
15398;SDS011;7797;51.428;6.756;2023-04-03T01:14:40;6.50;;;5.13;;
15398;SDS011;7797;51.428;6.756;2023-04-03T01:22:46;6.30;;;5.07;;
15398;SDS011;7797;51.428;6.756;2023-04-03T01:25:30;5.70;;;5.07;;
15398;SDS011;7797;51.428;6.756;2023-04-03T01:27:56;5.70;;;5.20;;
15398;SDS011;7797;51.428;6.756;2023-04-03T01:30:24;7.60;;;5.50;;
15398;SDS011;7797;51.428;6.756;2023-04-03T01:33:00;6.70;;;5.17;;
15398;SDS011;7797;51.428;6.756;2023-04-03T01:35:27;6.77;;;4.83;;
15398;SDS011;7797;51.428;6.756;2023-04-03T01:37:54;6.00;;;5.40;;
15398;SDS011;7797;51.428;6.756;2023-04-03T01:40:20;7.30;;;5.10;;
15398;SDS011;7797;51.428;6.756;2023-04-03T01:42:47;7.23;;;5.43;;
15398;SDS011;7797;51.428;6.756;2023-04-03T01:45:14;5.50;;;4.83;;
15398;SDS011;7797;51.428;6.756;2023-04-03T01:47:41;7.40;;;5.27;;
15398;SDS011;7797;51.428;6.756;2023-04-03T01:50:08;7.03;;;5.07;;
15398;SDS011;7797;51.428;6.756;2023-04-03T01:52:34;5.70;;;5.10;;
15398;SDS011;7797;51.428;6.756;2023-04-03T01:55:01;8.03;;;5.50;;
15398;SDS011;7797;51.428;6.756;2023-04-03T01:57:28;5.73;;;4.70;;
15398;SDS011;7797;51.428;6.756;2023-04-03T01:59:55;6.70;;;4.93;;
15398;SDS011;7797;51.428;6.756;2023-04-03T02:02:21;5.57;;;4.57;;
15398;SDS011;7797;51.428;6.756;2023-04-03T02:04:48;7.40;;;4.70;;
15398;SDS011;7797;51.428;6.756;2023-04-03T02:07:15;5.57;;;4.60;;
15398;SDS011;7797;51.428;6.756;2023-04-03T02:09:41;8.23;;;4.63;;
15398;SDS011;7797;51.428;6.756;2023-04-03T02:12:08;5.53;;;4.33;;
15398;SDS011;7797;51.428;6.756;2023-04-03T02:14:35;4.10;;;3.70;;
15398;SDS011;7797;51.428;6.756;2023-04-03T02:17:02;5.00;;;4.40;;
15398;SDS011;7797;51.428;6.756;2023-04-03T02:19:35;6.33;;;3.77;;
15398;SDS011;7797;51.428;6.756;2023-04-03T02:22:02;6.83;;;3.60;;
15398;SDS011;7797;51.428;6.756;2023-04-03T02:24:29;5.60;;;3.57;;
15398;SDS011;7797;51.428;6.756;2023-04-03T02:26:57;3.87;;;3.47;;
15398;SDS011;7797;51.428;6.756;2023-04-03T02:29:23;5.00;;;3.93;;
15398;SDS011;7797;51.428;6.756;2023-04-03T02:31:50;6.03;;;3.50;;
15398;SDS011;7797;51.428;6.756;2023-04-03T02:34:17;4.77;;;3.70;;
15398;SDS011;7797;51.428;6.756;2023-04-03T02:36:44;5.23;;;3.63;;
15398;SDS011;7797;51.428;6.756;2023-04-03T02:39:11;6.10;;;3.73;;
15398;SDS011;7797;51.428;6.756;2023-04-03T02:41:38;5.83;;;3.23;;
15398;SDS011;7797;51.428;6.756;2023-04-03T02:44:08;3.40;;;3.10;;
15398;SDS011;7797;51.428;6.756;2023-04-03T02:46:36;5.97;;;3.70;;
15398;SDS011;7797;51.428;6.756;2023-04-03T02:49:03;3.60;;;3.30;;
15398;SDS011;7797;51.428;6.756;2023-04-03T02:51:30;4.00;;;3.60;;
15398;SDS011;7797;51.428;6.756;2023-04-03T02:53:57;4.27;;;3.00;;
15398;SDS011;7797;51.428;6.756;2023-04-03T02:56:23;5.10;;;3.20;;
15398;SDS011;7797;51.428;6.756;2023-04-03T02:58:51;3.67;;;3.17;;
15398;SDS011;7797;51.428;6.756;2023-04-03T03:01:17;4.57;;;2.90;;
15398;SDS011;7797;51.428;6.756;2023-04-03T03:03:45;3.73;;;2.97;;
15398;SDS011;7797;51.428;6.756;2023-04-03T03:06:13;4.30;;;2.77;;
15398;SDS011;7797;51.428;6.756;2023-04-03T03:08:41;4.03;;;2.80;;
15398;SDS011;7797;51.428;6.756;2023-04-03T03:11:08;3.90;;;2.70;;
15398;SDS011;7797;51.428;6.756;2023-04-03T03:13:35;4.77;;;3.00;;
15398;SDS011;7797;51.428;6.756;2023-04-03T03:16:02;4.97;;;3.00;;
15398;SDS011;7797;51.428;6.756;2023-04-03T03:18:29;4.33;;;2.60;;
15398;SDS011;7797;51.428;6.756;2023-04-03T03:20:57;3.37;;;2.50;;
15398;SDS011;7797;51.428;6.756;2023-04-03T03:23:25;3.27;;;2.60;;
15398;SDS011;7797;51.428;6.756;2023-04-03T03:26:01;3.40;;;2.40;;
15398;SDS011;7797;51.428;6.756;2023-04-03T03:28:30;4.67;;;2.70;;
15398;SDS011;7797;51.428;6.756;2023-04-03T03:30:57;2.50;;;2.30;;
15398;SDS011;7797;51.428;6.756;2023-04-03T03:33:25;3.40;;;2.67;;
15398;SDS011;7797;51.428;6.756;2023-04-03T03:35:52;3.17;;;2.63;;
15398;SDS011;7797;51.428;6.756;2023-04-03T03:38:20;2.63;;;2.40;;
15398;SDS011;7797;51.428;6.756;2023-04-03T03:40:47;3.57;;;2.30;;
15398;SDS011;7797;51.428;6.756;2023-04-03T03:43:15;3.23;;;2.47;;
15398;SDS011;7797;51.428;6.756;2023-04-03T03:45:42;8.03;;;2.40;;
15398;SDS011;7797;51.428;6.756;2023-04-03T03:48:09;3.73;;;2.33;;
15398;SDS011;7797;51.428;6.756;2023-04-03T03:50:35;2.63;;;2.17;;
15398;SDS011;7797;51.428;6.756;2023-04-03T03:53:02;2.80;;;2.20;;
15398;SDS011;7797;51.428;6.756;2023-04-03T03:55:29;3.73;;;2.37;;
15398;SDS011;7797;51.428;6.756;2023-04-03T03:57:56;4.67;;;2.50;;
15398;SDS011;7797;51.428;6.756;2023-04-03T04:00:22;2.73;;;2.30;;
15398;SDS011;7797;51.428;6.756;2023-04-03T04:02:49;5.50;;;2.47;;
15398;SDS011;7797;51.428;6.756;2023-04-03T04:05:16;6.47;;;2.23;;
15398;SDS011;7797;51.428;6.756;2023-04-03T04:07:43;4.37;;;2.40;;
15398;SDS011;7797;51.428;6.756;2023-04-03T04:10:09;3.87;;;2.20;;
15398;SDS011;7797;51.428;6.756;2023-04-03T04:12:36;2.63;;;2.20;;
15398;SDS011;7797;51.428;6.756;2023-04-03T04:15:03;3.60;;;2.33;;
15398;SDS011;7797;51.428;6.756;2023-04-03T04:17:30;5.37;;;2.47;;
15398;SDS011;7797;51.428;6.756;2023-04-03T04:19:57;3.57;;;2.50;;
15398;SDS011;7797;51.428;6.756;2023-04-03T04:22:23;3.23;;;2.03;;
15398;SDS011;7797;51.428;6.756;2023-04-03T04:24:50;4.23;;;2.30;;
15398;SDS011;7797;51.428;6.756;2023-04-03T04:27:17;4.10;;;2.60;;
15398;SDS011;7797;51.428;6.756;2023-04-03T04:29:43;2.37;;;1.90;;
15398;SDS011;7797;51.428;6.756;2023-04-03T04:32:10;6.13;;;2.23;;
15398;SDS011;7797;51.428;6.756;2023-04-03T04:34:37;3.63;;;2.07;;
15398;SDS011;7797;51.428;6.756;2023-04-03T04:37:04;3.43;;;2.20;;
15398;SDS011;7797;51.428;6.756;2023-04-03T04:39:31;7.07;;;2.10;;
15398;SDS011;7797;51.428;6.756;2023-04-03T04:41:57;2.27;;;2.00;;
15398;SDS011;7797;51.428;6.756;2023-04-03T04:44:24;3.60;;;2.07;;
15398;SDS011;7797;51.428;6.756;2023-04-03T04:46:51;3.03;;;1.80;;
15398;SDS011;7797;51.428;6.756;2023-04-03T04:49:17;3.80;;;2.20;;
15398;SDS011;7797;51.428;6.756;2023-04-03T04:51:44;2.30;;;2.10;;
15398;SDS011;7797;51.428;6.756;2023-04-03T04:54:22;4.20;;;2.30;;
15398;SDS011;7797;51.428;6.756;2023-04-03T04:56:49;3.00;;;2.00;;
15398;SDS011;7797;51.428;6.756;2023-04-03T04:59:16;4.13;;;2.00;;
15398;SDS011;7797;51.428;6.756;2023-04-03T05:01:45;2.73;;;2.20;;
15398;SDS011;7797;51.428;6.756;2023-04-03T05:04:12;4.10;;;2.07;;
15398;SDS011;7797;51.428;6.756;2023-04-03T05:06:39;5.40;;;2.30;;
15398;SDS011;7797;51.428;6.756;2023-04-03T05:09:06;3.43;;;2.03;;
15398;SDS011;7797;51.428;6.756;2023-04-03T05:11:33;3.77;;;2.30;;
15398;SDS011;7797;51.428;6.756;2023-04-03T05:14:00;3.03;;;1.97;;
15398;SDS011;7797;51.428;6.756;2023-04-03T05:16:26;4.13;;;2.43;;
15398;SDS011;7797;51.428;6.756;2023-04-03T05:18:53;3.97;;;2.50;;
15398;SDS011;7797;51.428;6.756;2023-04-03T05:21:20;4.20;;;2.27;;
15398;SDS011;7797;51.428;6.756;2023-04-03T05:23:49;3.47;;;2.33;;
15398;SDS011;7797;51.428;6.756;2023-04-03T05:26:16;3.40;;;2.40;;
15398;SDS011;7797;51.428;6.756;2023-04-03T05:28:43;4.40;;;2.70;;
15398;SDS011;7797;51.428;6.756;2023-04-03T05:31:09;6.67;;;2.50;;
15398;SDS011;7797;51.428;6.756;2023-04-03T05:33:36;3.33;;;2.67;;
15398;SDS011;7797;51.428;6.756;2023-04-03T05:36:03;5.63;;;2.83;;
15398;SDS011;7797;51.428;6.756;2023-04-03T05:38:31;3.50;;;2.80;;
15398;SDS011;7797;51.428;6.756;2023-04-03T05:40:58;6.80;;;2.63;;
15398;SDS011;7797;51.428;6.756;2023-04-03T05:43:25;3.37;;;2.20;;
15398;SDS011;7797;51.428;6.756;2023-04-03T05:45:56;3.37;;;2.40;;
15398;SDS011;7797;51.428;6.756;2023-04-03T05:48:23;6.33;;;2.37;;
15398;SDS011;7797;51.428;6.756;2023-04-03T05:50:50;8.00;;;2.47;;
15398;SDS011;7797;51.428;6.756;2023-04-03T05:53:18;5.27;;;2.73;;
15398;SDS011;7797;51.428;6.756;2023-04-03T05:55:48;4.77;;;2.87;;
15398;SDS011;7797;51.428;6.756;2023-04-03T05:58:14;3.63;;;2.63;;
15398;SDS011;7797;51.428;6.756;2023-04-03T06:00:41;6.07;;;2.83;;
15398;SDS011;7797;51.428;6.756;2023-04-03T06:03:08;8.07;;;2.90;;
15398;SDS011;7797;51.428;6.756;2023-04-03T06:05:40;5.37;;;2.90;;
15398;SDS011;7797;51.428;6.756;2023-04-03T06:08:08;6.27;;;2.70;;
15398;SDS011;7797;51.428;6.756;2023-04-03T06:10:35;4.77;;;2.90;;
15398;SDS011;7797;51.428;6.756;2023-04-03T06:13:02;9.40;;;2.70;;
15398;SDS011;7797;51.428;6.756;2023-04-03T06:15:29;4.40;;;2.60;;
15398;SDS011;7797;51.428;6.756;2023-04-03T06:17:56;6.73;;;3.00;;
15398;SDS011;7797;51.428;6.756;2023-04-03T06:20:23;5.23;;;2.90;;
15398;SDS011;7797;51.428;6.756;2023-04-03T06:22:50;3.43;;;2.50;;
15398;SDS011;7797;51.428;6.756;2023-04-03T06:25:17;4.17;;;2.30;;
15398;SDS011;7797;51.428;6.756;2023-04-03T06:27:45;5.83;;;2.27;;
15398;SDS011;7797;51.428;6.756;2023-04-03T06:30:12;3.30;;;2.40;;
15398;SDS011;7797;51.428;6.756;2023-04-03T06:32:39;5.23;;;2.20;;
15398;SDS011;7797;51.428;6.756;2023-04-03T06:35:06;3.03;;;2.33;;
15398;SDS011;7797;51.428;6.756;2023-04-03T06:37:34;4.30;;;2.53;;
15398;SDS011;7797;51.428;6.756;2023-04-03T06:40:01;4.77;;;2.20;;
15398;SDS011;7797;51.428;6.756;2023-04-03T06:42:29;4.50;;;2.27;;
15398;SDS011;7797;51.428;6.756;2023-04-03T06:44:56;6.37;;;2.87;;
15398;SDS011;7797;51.428;6.756;2023-04-03T06:47:22;3.70;;;2.47;;
15398;SDS011;7797;51.428;6.756;2023-04-03T06:49:54;3.80;;;2.23;;
15398;SDS011;7797;51.428;6.756;2023-04-03T06:52:22;5.00;;;2.60;;
15398;SDS011;7797;51.428;6.756;2023-04-03T06:54:49;5.97;;;2.60;;
15398;SDS011;7797;51.428;6.756;2023-04-03T06:57:18;6.70;;;3.27;;
15398;SDS011;7797;51.428;6.756;2023-04-03T06:59:45;6.23;;;2.70;;
15398;SDS011;7797;51.428;6.756;2023-04-03T07:02:12;3.97;;;2.50;;
15398;SDS011;7797;51.428;6.756;2023-04-03T07:04:39;5.10;;;2.10;;
15398;SDS011;7797;51.428;6.756;2023-04-03T07:07:06;3.10;;;2.13;;
15398;SDS011;7797;51.428;6.756;2023-04-03T07:09:34;5.80;;;4.63;;
15398;SDS011;7797;51.428;6.756;2023-04-03T07:12:00;7.97;;;3.13;;
15398;SDS011;7797;51.428;6.756;2023-04-03T07:14:27;5.27;;;2.73;;
15398;SDS011;7797;51.428;6.756;2023-04-03T07:16:54;4.63;;;2.63;;
15398;SDS011;7797;51.428;6.756;2023-04-03T07:19:20;4.53;;;2.80;;
15398;SDS011;7797;51.428;6.756;2023-04-03T07:21:47;3.50;;;2.07;;
15398;SDS011;7797;51.428;6.756;2023-04-03T07:24:14;4.23;;;2.20;;
15398;SDS011;7797;51.428;6.756;2023-04-03T07:26:42;5.07;;;2.50;;
15398;SDS011;7797;51.428;6.756;2023-04-03T07:29:09;5.27;;;2.13;;
15398;SDS011;7797;51.428;6.756;2023-04-03T07:31:36;4.07;;;2.30;;
15398;SDS011;7797;51.428;6.756;2023-04-03T07:34:02;4.37;;;2.87;;
15398;SDS011;7797;51.428;6.756;2023-04-03T07:36:29;4.80;;;2.30;;
15398;SDS011;7797;51.428;6.756;2023-04-03T07:38:59;5.57;;;2.50;;
15398;SDS011;7797;51.428;6.756;2023-04-03T07:41:26;5.57;;;2.30;;
15398;SDS011;7797;51.428;6.756;2023-04-03T07:43:53;6.03;;;2.70;;
15398;SDS011;7797;51.428;6.756;2023-04-03T07:46:20;5.57;;;2.70;;
15398;SDS011;7797;51.428;6.756;2023-04-03T07:48:47;4.13;;;2.33;;
15398;SDS011;7797;51.428;6.756;2023-04-03T07:51:14;3.47;;;2.40;;
15398;SDS011;7797;51.428;6.756;2023-04-03T07:53:41;3.77;;;2.43;;
15398;SDS011;7797;51.428;6.756;2023-04-03T07:56:08;4.47;;;2.60;;
15398;SDS011;7797;51.428;6.756;2023-04-03T07:58:34;3.30;;;2.03;;
15398;SDS011;7797;51.428;6.756;2023-04-03T08:01:02;2.87;;;2.00;;
15398;SDS011;7797;51.428;6.756;2023-04-03T08:03:29;3.50;;;2.10;;
15398;SDS011;7797;51.428;6.756;2023-04-03T08:06:00;4.60;;;2.13;;
15398;SDS011;7797;51.428;6.756;2023-04-03T08:08:30;3.60;;;2.17;;
15398;SDS011;7797;51.428;6.756;2023-04-03T08:10:58;3.97;;;2.53;;
15398;SDS011;7797;51.428;6.756;2023-04-03T08:13:26;3.23;;;2.13;;
15398;SDS011;7797;51.428;6.756;2023-04-03T08:15:53;5.50;;;2.07;;
15398;SDS011;7797;51.428;6.756;2023-04-03T08:18:19;3.10;;;2.50;;
15398;SDS011;7797;51.428;6.756;2023-04-03T08:20:48;4.87;;;2.37;;
15398;SDS011;7797;51.428;6.756;2023-04-03T08:23:14;3.67;;;1.97;;
15398;SDS011;7797;51.428;6.756;2023-04-03T08:25:45;7.00;;;2.47;;
15398;SDS011;7797;51.428;6.756;2023-04-03T08:28:12;2.73;;;2.03;;
15398;SDS011;7797;51.428;6.756;2023-04-03T08:30:39;3.17;;;2.10;;
15398;SDS011;7797;51.428;6.756;2023-04-03T08:33:07;2.70;;;1.67;;
15398;SDS011;7797;51.428;6.756;2023-04-03T08:35:38;2.07;;;1.80;;
15398;SDS011;7797;51.428;6.756;2023-04-03T08:38:09;2.70;;;2.10;;
15398;SDS011;7797;51.428;6.756;2023-04-03T08:40:37;3.80;;;2.37;;
15398;SDS011;7797;51.428;6.756;2023-04-03T08:43:17;2.77;;;1.80;;
15398;SDS011;7797;51.428;6.756;2023-04-03T08:46:01;3.03;;;2.10;;
15398;SDS011;7797;51.428;6.756;2023-04-03T08:48:36;2.93;;;2.00;;
15398;SDS011;7797;51.428;6.756;2023-04-03T08:51:16;3.00;;;1.77;;
15398;SDS011;7797;51.428;6.756;2023-04-03T08:54:06;3.43;;;2.00;;
15398;SDS011;7797;51.428;6.756;2023-04-03T08:56:35;3.73;;;2.17;;
15398;SDS011;7797;51.428;6.756;2023-04-03T08:59:06;2.10;;;1.47;;
15398;SDS011;7797;51.428;6.756;2023-04-03T09:01:39;2.67;;;1.90;;
15398;SDS011;7797;51.428;6.756;2023-04-03T09:04:13;3.30;;;1.83;;
15398;SDS011;7797;51.428;6.756;2023-04-03T09:06:45;2.53;;;1.90;;
15398;SDS011;7797;51.428;6.756;2023-04-03T09:09:33;1.90;;;1.70;;
15398;SDS011;7797;51.428;6.756;2023-04-03T09:12:19;2.27;;;1.47;;
15398;SDS011;7797;51.428;6.756;2023-04-03T09:17:29;1.73;;;1.50;;
15398;SDS011;7797;51.428;6.756;2023-04-03T09:22:57;3.53;;;1.57;;
15398;SDS011;7797;51.428;6.756;2023-04-03T09:25:28;2.97;;;1.70;;
15398;SDS011;7797;51.428;6.756;2023-04-03T09:27:59;1.87;;;1.20;;
15398;SDS011;7797;51.428;6.756;2023-04-03T09:30:27;1.40;;;1.30;;
15398;SDS011;7797;51.428;6.756;2023-04-03T09:32:55;1.43;;;1.30;;
15398;SDS011;7797;51.428;6.756;2023-04-03T09:35:24;1.97;;;1.50;;
15398;SDS011;7797;51.428;6.756;2023-04-03T09:40:43;1.60;;;1.30;;
15398;SDS011;7797;51.428;6.756;2023-04-03T09:43:25;2.00;;;1.30;;
15398;SDS011;7797;51.428;6.756;2023-04-03T09:45:54;3.03;;;1.70;;
15398;SDS011;7797;51.428;6.756;2023-04-03T09:48:23;3.07;;;1.60;;
15398;SDS011;7797;51.428;6.756;2023-04-03T09:53:41;1.93;;;1.20;;
15398;SDS011;7797;51.428;6.756;2023-04-03T09:56:18;1.03;;;1.03;;
15398;SDS011;7797;51.428;6.756;2023-04-03T09:59:12;3.37;;;1.27;;
15398;SDS011;7797;51.428;6.756;2023-04-03T10:01:56;2.73;;;1.00;;
15398;SDS011;7797;51.428;6.756;2023-04-03T10:04:40;2.87;;;1.53;;
15398;SDS011;7797;51.428;6.756;2023-04-03T10:10:20;1.33;;;1.20;;
15398;SDS011;7797;51.428;6.756;2023-04-03T10:15:59;2.80;;;1.27;;
15398;SDS011;7797;51.428;6.756;2023-04-03T10:18:44;2.57;;;1.47;;
15398;SDS011;7797;51.428;6.756;2023-04-03T10:21:15;1.50;;;1.40;;
15398;SDS011;7797;51.428;6.756;2023-04-03T10:24:06;1.33;;;1.13;;
15398;SDS011;7797;51.428;6.756;2023-04-03T10:29:22;1.20;;;1.10;;
15398;SDS011;7797;51.428;6.756;2023-04-03T10:32:01;1.30;;;1.17;;
15398;SDS011;7797;51.428;6.756;2023-04-03T10:34:35;1.73;;;1.63;;
15398;SDS011;7797;51.428;6.756;2023-04-03T10:42:35;1.70;;;1.60;;
15398;SDS011;7797;51.428;6.756;2023-04-03T10:45:15;1.57;;;1.47;;
15398;SDS011;7797;51.428;6.756;2023-04-03T10:53:55;2.07;;;1.40;;
15398;SDS011;7797;51.428;6.756;2023-04-03T10:59:08;2.07;;;1.40;;
15398;SDS011;7797;51.428;6.756;2023-04-03T11:01:45;3.03;;;1.40;;
15398;SDS011;7797;51.428;6.756;2023-04-03T11:04:14;3.07;;;1.43;;
15398;SDS011;7797;51.428;6.756;2023-04-03T11:06:52;1.60;;;1.27;;
15398;SDS011;7797;51.428;6.756;2023-04-03T11:09:44;3.77;;;2.10;;
15398;SDS011;7797;51.428;6.756;2023-04-03T11:12:34;3.63;;;1.50;;
15398;SDS011;7797;51.428;6.756;2023-04-03T11:15:05;3.10;;;1.50;;
15398;SDS011;7797;51.428;6.756;2023-04-03T11:17:37;1.93;;;1.50;;
15398;SDS011;7797;51.428;6.756;2023-04-03T11:20:23;3.27;;;1.90;;
15398;SDS011;7797;51.428;6.756;2023-04-03T11:22:57;4.40;;;1.77;;
15398;SDS011;7797;51.428;6.756;2023-04-03T11:25:26;4.60;;;1.30;;
15398;SDS011;7797;51.428;6.756;2023-04-03T11:28:00;2.80;;;1.53;;
15398;SDS011;7797;51.428;6.756;2023-04-03T11:30:32;2.00;;;1.60;;
15398;SDS011;7797;51.428;6.756;2023-04-03T11:35:31;1.97;;;1.60;;
15398;SDS011;7797;51.428;6.756;2023-04-03T11:37:59;1.50;;;1.40;;
15398;SDS011;7797;51.428;6.756;2023-04-03T11:40:28;2.53;;;1.50;;
15398;SDS011;7797;51.428;6.756;2023-04-03T11:48:29;2.00;;;1.80;;
15398;SDS011;7797;51.428;6.756;2023-04-03T11:50:58;2.17;;;1.67;;
15398;SDS011;7797;51.428;6.756;2023-04-03T11:56:00;2.43;;;1.50;;
15398;SDS011;7797;51.428;6.756;2023-04-03T11:58:29;2.17;;;1.50;;
15398;SDS011;7797;51.428;6.756;2023-04-03T12:01:04;1.60;;;1.43;;
15398;SDS011;7797;51.428;6.756;2023-04-03T12:03:34;5.13;;;1.83;;
15398;SDS011;7797;51.428;6.756;2023-04-03T12:16:23;2.03;;;1.40;;
15398;SDS011;7797;51.428;6.756;2023-04-03T12:21:22;3.80;;;1.60;;
15398;SDS011;7797;51.428;6.756;2023-04-03T12:26:49;3.93;;;1.40;;
15398;SDS011;7797;51.428;6.756;2023-04-03T12:29:25;3.90;;;1.80;;
15398;SDS011;7797;51.428;6.756;2023-04-03T12:32:43;1.40;;;1.30;;
15398;SDS011;7797;51.428;6.756;2023-04-03T12:35:12;2.67;;;1.33;;
15398;SDS011;7797;51.428;6.756;2023-04-03T12:41:24;2.23;;;1.40;;
15398;SDS011;7797;51.428;6.756;2023-04-03T12:46:47;3.77;;;1.50;;
15398;SDS011;7797;51.428;6.756;2023-04-03T12:52:17;1.57;;;1.40;;
15398;SDS011;7797;51.428;6.756;2023-04-03T12:55:07;2.57;;;1.40;;
15398;SDS011;7797;51.428;6.756;2023-04-03T12:57:40;2.23;;;1.50;;
15398;SDS011;7797;51.428;6.756;2023-04-03T13:00:20;5.30;;;1.80;;
15398;SDS011;7797;51.428;6.756;2023-04-03T13:02:50;1.60;;;1.50;;
15398;SDS011;7797;51.428;6.756;2023-04-03T13:05:18;4.57;;;1.63;;
15398;SDS011;7797;51.428;6.756;2023-04-03T13:07:54;3.47;;;1.80;;
15398;SDS011;7797;51.428;6.756;2023-04-03T13:10:24;2.50;;;1.57;;
15398;SDS011;7797;51.428;6.756;2023-04-03T13:12:52;1.60;;;1.30;;
15398;SDS011;7797;51.428;6.756;2023-04-03T13:15:30;2.60;;;1.23;;
15398;SDS011;7797;51.428;6.756;2023-04-03T13:18:26;1.83;;;1.40;;
15398;SDS011;7797;51.428;6.756;2023-04-03T13:21:06;1.63;;;1.40;;
15398;SDS011;7797;51.428;6.756;2023-04-03T13:23:38;3.93;;;1.40;;
15398;SDS011;7797;51.428;6.756;2023-04-03T13:26:06;3.47;;;1.80;;
15398;SDS011;7797;51.428;6.756;2023-04-03T13:28:34;1.90;;;1.20;;
15398;SDS011;7797;51.428;6.756;2023-04-03T13:34:24;1.97;;;1.47;;
15398;SDS011;7797;51.428;6.756;2023-04-03T13:36:38;2.20;;;1.10;;
15398;SDS011;7797;51.428;6.756;2023-04-03T13:39:21;2.07;;;1.50;;
15398;SDS011;7797;51.428;6.756;2023-04-03T13:41:52;1.70;;;1.60;;
15398;SDS011;7797;51.428;6.756;2023-04-03T13:46:48;1.67;;;1.30;;
15398;SDS011;7797;51.428;6.756;2023-04-03T13:52:30;1.83;;;1.40;;
15398;SDS011;7797;51.428;6.756;2023-04-03T13:57:53;1.90;;;1.30;;
15398;SDS011;7797;51.428;6.756;2023-04-03T14:03:19;1.70;;;1.40;;
15398;SDS011;7797;51.428;6.756;2023-04-03T14:05:48;1.90;;;1.63;;
15398;SDS011;7797;51.428;6.756;2023-04-03T14:08:15;2.13;;;1.50;;
15398;SDS011;7797;51.428;6.756;2023-04-03T14:10:42;1.77;;;1.60;;
15398;SDS011;7797;51.428;6.756;2023-04-03T14:13:11;1.17;;;1.17;;
15398;SDS011;7797;51.428;6.756;2023-04-03T14:15:40;1.40;;;1.30;;
15398;SDS011;7797;51.428;6.756;2023-04-03T14:18:09;4.10;;;1.40;;
15398;SDS011;7797;51.428;6.756;2023-04-03T14:20:38;1.93;;;1.37;;
15398;SDS011;7797;51.428;6.756;2023-04-03T14:23:05;2.20;;;1.30;;
15398;SDS011;7797;51.428;6.756;2023-04-03T14:25:32;2.60;;;1.43;;
15398;SDS011;7797;51.428;6.756;2023-04-03T14:28:00;1.60;;;1.33;;
15398;SDS011;7797;51.428;6.756;2023-04-03T14:30:32;1.43;;;1.33;;
15398;SDS011;7797;51.428;6.756;2023-04-03T14:33:00;1.73;;;1.23;;
15398;SDS011;7797;51.428;6.756;2023-04-03T14:35:27;2.70;;;1.40;;
15398;SDS011;7797;51.428;6.756;2023-04-03T14:37:54;3.27;;;1.60;;
15398;SDS011;7797;51.428;6.756;2023-04-03T14:40:23;1.60;;;1.50;;
15398;SDS011;7797;51.428;6.756;2023-04-03T14:42:51;4.80;;;1.73;;
15398;SDS011;7797;51.428;6.756;2023-04-03T14:45:21;2.00;;;1.70;;
15398;SDS011;7797;51.428;6.756;2023-04-03T14:47:54;2.50;;;1.60;;
15398;SDS011;7797;51.428;6.756;2023-04-03T14:50:23;2.00;;;1.43;;
15398;SDS011;7797;51.428;6.756;2023-04-03T14:52:53;1.17;;;1.10;;
15398;SDS011;7797;51.428;6.756;2023-04-03T14:55:26;2.97;;;1.63;;
15398;SDS011;7797;51.428;6.756;2023-04-03T14:57:54;1.87;;;1.50;;
15398;SDS011;7797;51.428;6.756;2023-04-03T15:00:21;3.93;;;1.60;;
15398;SDS011;7797;51.428;6.756;2023-04-03T15:02:48;2.23;;;1.53;;
15398;SDS011;7797;51.428;6.756;2023-04-03T15:05:15;2.80;;;1.27;;
15398;SDS011;7797;51.428;6.756;2023-04-03T15:07:45;1.77;;;1.40;;
15398;SDS011;7797;51.428;6.756;2023-04-03T15:10:22;3.27;;;1.70;;
15398;SDS011;7797;51.428;6.756;2023-04-03T15:12:51;2.37;;;1.43;;
15398;SDS011;7797;51.428;6.756;2023-04-03T15:15:19;1.63;;;1.50;;
15398;SDS011;7797;51.428;6.756;2023-04-03T15:17:47;1.43;;;1.33;;
15398;SDS011;7797;51.428;6.756;2023-04-03T15:20:21;1.57;;;1.40;;
15398;SDS011;7797;51.428;6.756;2023-04-03T15:22:49;1.93;;;1.40;;
15398;SDS011;7797;51.428;6.756;2023-04-03T15:25:16;3.50;;;1.37;;
15398;SDS011;7797;51.428;6.756;2023-04-03T15:27:44;1.90;;;1.27;;
15398;SDS011;7797;51.428;6.756;2023-04-03T15:30:13;1.77;;;1.67;;
15398;SDS011;7797;51.428;6.756;2023-04-03T15:32:43;2.23;;;1.60;;
15398;SDS011;7797;51.428;6.756;2023-04-03T15:35:09;6.67;;;1.70;;
15398;SDS011;7797;51.428;6.756;2023-04-03T15:37:36;1.80;;;1.63;;
15398;SDS011;7797;51.428;6.756;2023-04-03T15:40:04;2.13;;;1.50;;
15398;SDS011;7797;51.428;6.756;2023-04-03T15:42:31;2.03;;;1.60;;
15398;SDS011;7797;51.428;6.756;2023-04-03T15:44:58;1.87;;;1.50;;
15398;SDS011;7797;51.428;6.756;2023-04-03T15:47:25;2.27;;;1.73;;
15398;SDS011;7797;51.428;6.756;2023-04-03T15:49:53;2.37;;;1.50;;
15398;SDS011;7797;51.428;6.756;2023-04-03T15:52:21;2.70;;;1.93;;
15398;SDS011;7797;51.428;6.756;2023-04-03T15:54:47;3.73;;;1.90;;
15398;SDS011;7797;51.428;6.756;2023-04-03T15:57:14;3.30;;;1.77;;
15398;SDS011;7797;51.428;6.756;2023-04-03T15:59:41;2.67;;;1.47;;
15398;SDS011;7797;51.428;6.756;2023-04-03T16:02:08;1.77;;;1.67;;
15398;SDS011;7797;51.428;6.756;2023-04-03T16:04:36;2.73;;;1.70;;
15398;SDS011;7797;51.428;6.756;2023-04-03T16:07:03;2.60;;;1.63;;
15398;SDS011;7797;51.428;6.756;2023-04-03T16:09:31;1.53;;;1.43;;
15398;SDS011;7797;51.428;6.756;2023-04-03T16:11:58;1.77;;;1.50;;
15398;SDS011;7797;51.428;6.756;2023-04-03T16:14:26;1.60;;;1.50;;
15398;SDS011;7797;51.428;6.756;2023-04-03T16:16:54;2.60;;;1.80;;
15398;SDS011;7797;51.428;6.756;2023-04-03T16:19:21;1.97;;;1.77;;
15398;SDS011;7797;51.428;6.756;2023-04-03T16:21:52;2.10;;;1.40;;
15398;SDS011;7797;51.428;6.756;2023-04-03T16:24:19;1.60;;;1.40;;
15398;SDS011;7797;51.428;6.756;2023-04-03T16:26:46;3.30;;;1.90;;
15398;SDS011;7797;51.428;6.756;2023-04-03T16:29:13;2.97;;;1.67;;
15398;SDS011;7797;51.428;6.756;2023-04-03T16:31:40;2.67;;;1.70;;
15398;SDS011;7797;51.428;6.756;2023-04-03T16:34:07;1.50;;;1.40;;
15398;SDS011;7797;51.428;6.756;2023-04-03T16:36:33;2.73;;;1.53;;
15398;SDS011;7797;51.428;6.756;2023-04-03T16:39:00;2.50;;;1.50;;
15398;SDS011;7797;51.428;6.756;2023-04-03T16:41:27;2.73;;;1.97;;
15398;SDS011;7797;51.428;6.756;2023-04-03T16:43:53;4.10;;;1.60;;
15398;SDS011;7797;51.428;6.756;2023-04-03T16:46:21;2.53;;;1.63;;